Time;durP1;ratioP1;P1;durP2;ratioP2;P2;SDS_P1;SDS_P2;PMS_P1;PMS_P2;Temp;Humidity;BMP_temperature;BMP_pressure;BME280_temperature;BME280_humidity;BME280_pressure;Samples;Min_cycle;Max_cycle;Signal;HPM_P1;HPM_P2
2023/12/17 00:01:31;;;;;;;30.88;14.70;;;3.20;99.90;;;;;;5042630;28;20059;-83
2023/12/17 00:03:59;;;;;;;33.28;15.75;;;3.10;99.90;;;;;;5046168;28;20055;-82
2023/12/17 00:06:26;;;;;;;29.77;14.75;;;3.10;99.90;;;;;;5042130;28;20040;-80
2023/12/17 00:08:52;;;;;;;29.88;14.98;;;3.20;99.90;;;;;;5051389;28;20028;-84
2023/12/17 00:11:18;;;;;;;30.70;15.05;;;4.90;99.90;;;;;;5048261;28;20025;-85
2023/12/17 00:13:44;;;;;;;31.50;15.15;;;;;;;;;;5041624;28;20058;-82
2023/12/17 00:16:10;;;;;;;27.30;14.10;;;3.10;99.90;;;;;;5059445;28;20140;-82
2023/12/17 00:18:36;;;;;;;31.95;15.55;;;;;;;;;;5051226;28;20033;-83
2023/12/17 00:21:01;;;;;;;29.95;15.38;;;3.10;99.90;;;;;;5061220;28;20051;-83
2023/12/17 00:23:27;;;;;;;30.23;16.33;;;3.10;99.90;;;;;;5047868;28;20203;-81
2023/12/17 00:25:54;;;;;;;27.60;14.25;;;3.10;99.90;;;;;;5050169;28;20033;-85
2023/12/17 00:28:20;;;;;;;34.80;16.45;;;3.10;99.90;;;;;;5044259;28;20057;-81
2023/12/17 00:30:46;;;;;;;29.73;15.65;;;3.10;99.90;;;;;;5041717;28;20048;-81
2023/12/17 00:33:12;;;;;;;31.45;14.85;;;;;;;;;;5048143;28;20097;-80
2023/12/17 00:35:38;;;;;;;38.03;17.83;;;3.00;99.90;;;;;;5044214;28;20029;-81
2023/12/17 00:38:03;;;;;;;32.60;16.35;;;3.00;99.90;;;;;;5042112;28;20045;-82
2023/12/17 00:40:30;;;;;;;31.45;14.68;;;;;;;;;;5072007;28;20101;-82
2023/12/17 00:42:56;;;;;;;29.73;14.77;;;;;;;;;;5052436;28;20105;-82
2023/12/17 00:45:23;;;;;;;28.33;15.02;;;2.90;99.90;;;;;;5062162;28;20029;-85
2023/12/17 00:47:49;;;;;;;29.85;15.32;;;;;;;;;;5061321;28;20087;-86
2023/12/17 00:50:15;;;;;;;30.95;14.20;;;;;;;;;;5068620;28;20029;-83
2023/12/17 00:52:42;;;;;;;30.33;14.50;;;2.90;99.90;;;;;;5028896;28;20033;-82
2023/12/17 00:55:13;;;;;;;30.13;15.15;;;2.90;99.90;;;;;;5054656;28;20025;-82
2023/12/17 00:57:41;;;;;;;34.20;15.05;;;2.90;99.90;;;;;;5050459;28;20025;-86
2023/12/17 01:00:09;;;;;;;32.50;15.88;;;2.90;99.90;;;;;;5076357;28;20026;-86
2023/12/17 01:02:37;;;;;;;36.22;15.63;;;2.80;99.90;;;;;;5046689;28;20098;-86
2023/12/17 01:05:03;;;;;;;26.25;13.23;;;;;;;;;;5063943;28;20040;-85
2023/12/17 01:07:30;;;;;;;30.02;13.93;;;2.90;99.90;;;;;;5057412;28;20076;-86
2023/12/17 01:09:56;;;;;;;27.88;13.77;;;;;;;;;;5054083;28;20046;-83
2023/12/17 01:12:24;;;;;;;26.73;13.25;;;2.90;99.90;;;;;;5050569;28;20072;-87
2023/12/17 01:14:51;;;;;;;32.38;14.05;;;2.90;99.90;;;;;;5046414;28;20022;-82
2023/12/17 01:17:18;;;;;;;27.25;13.95;;;2.80;99.90;;;;;;5050896;28;20029;-86
2023/12/17 01:19:43;;;;;;;30.70;14.77;;;4.20;99.90;;;;;;5050723;28;20042;-86
2023/12/17 01:22:10;;;;;;;24.38;13.80;;;2.70;99.90;;;;;;5047686;28;20033;-85
2023/12/17 01:24:37;;;;;;;26.15;13.82;;;;;;;;;;5048531;28;20128;-83
2023/12/17 01:27:04;;;;;;;30.20;13.45;;;2.70;99.90;;;;;;5051959;28;20025;-85
2023/12/17 01:29:30;;;;;;;27.33;14.05;;;4.40;99.90;;;;;;5051882;28;20018;-87
2023/12/17 01:31:57;;;;;;;26.20;13.27;;;2.80;99.90;;;;;;5052009;28;20029;-86
2023/12/17 01:34:24;;;;;;;31.20;14.00;;;2.80;99.90;;;;;;5053328;28;20026;-87
2023/12/17 01:36:50;;;;;;;27.85;13.70;;;2.80;99.90;;;;;;5049538;28;20524;-82
2023/12/17 01:39:17;;;;;;;26.77;13.55;;;2.80;99.90;;;;;;5048394;28;20059;-81
2023/12/17 01:41:44;;;;;;;31.08;12.90;;;2.80;99.90;;;;;;5068322;28;20093;-87
2023/12/17 01:44:11;;;;;;;28.15;14.13;;;2.50;99.90;;;;;;5052038;28;20037;-82
2023/12/17 01:46:39;;;;;;;23.20;12.95;;;2.80;99.90;;;;;;5049951;28;20037;-84
2023/12/17 01:49:05;;;;;;;28.83;12.95;;;;;;;;;;5047623;28;20241;-84
2023/12/17 01:51:31;;;;;;;27.08;12.60;;;2.80;99.90;;;;;;5064008;28;20034;-84
2023/12/17 01:53:59;;;;;;;32.08;12.75;;;2.80;99.90;;;;;;5051671;28;20033;-85
2023/12/17 01:56:25;;;;;;;26.88;12.63;;;;;;;;;;5061502;28;20064;-82
2023/12/17 01:58:52;;;;;;;28.80;13.52;;;2.80;99.90;;;;;;5049614;28;20060;-84
2023/12/17 02:01:18;;;;;;;27.88;11.85;;;2.80;99.90;;;;;;5047547;28;20037;-81
2023/12/17 02:03:44;;;;;;;24.52;12.98;;;;;;;;;;5049499;28;20033;-82
2023/12/17 02:06:11;;;;;;;26.15;12.15;;;2.80;99.90;;;;;;5046903;28;20040;-81
2023/12/17 02:08:37;;;;;;;23.15;12.32;;;2.70;99.90;;;;;;5046330;28;20523;-81
2023/12/17 02:11:04;;;;;;;26.52;12.98;;;2.50;99.90;;;;;;5042554;28;20078;-85
2023/12/17 02:13:30;;;;;;;24.15;12.55;;;;;;;;;;5042447;28;20036;-84
2023/12/17 02:15:56;;;;;;;23.13;12.10;;;;;;;;;;5077997;28;20021;-82
2023/12/17 02:18:22;;;;;;;24.83;13.00;;;2.60;99.90;;;;;;5056772;28;20033;-82
2023/12/17 02:20:48;;;;;;;24.80;12.75;;;;;;;;;;5044619;28;20044;-82
2023/12/17 02:23:15;;;;;;;27.50;13.80;;;2.60;99.90;;;;;;5062998;28;20045;-83
2023/12/17 02:25:46;;;;;;;30.70;12.88;;;2.60;99.90;;;;;;5048343;28;20112;-80
2023/12/17 02:28:13;;;;;;;27.10;11.85;;;;;;;;;;5048411;28;20042;-85
2023/12/17 02:30:40;;;;;;;26.15;13.23;;;2.50;99.90;;;;;;5046983;28;20029;-82
2023/12/17 02:33:06;;;;;;;27.65;14.05;;;2.50;99.90;;;;;;5057862;28;20048;-82
2023/12/17 02:35:32;;;;;;;30.55;13.38;;;;;;;;;;5056784;28;20061;-83
2023/12/17 02:37:58;;;;;;;26.52;13.02;;;2.50;99.90;;;;;;5076005;28;20021;-84
2023/12/17 02:40:24;;;;;;;25.48;12.25;;;2.50;99.90;;;;;;5054757;28;20040;-81
2023/12/17 02:42:50;;;;;;;24.27;12.15;;;2.50;99.90;;;;;;5053383;28;20041;-86
2023/12/17 02:45:16;;;;;;;28.27;12.10;;;2.40;99.90;;;;;;5077039;28;20122;-85
2023/12/17 02:47:42;;;;;;;22.42;11.52;;;2.40;99.90;;;;;;5045326;28;20038;-82
2023/12/17 02:50:08;;;;;;;22.90;12.50;;;;;;;;;;5044705;28;20041;-81
2023/12/17 02:52:35;;;;;;;26.70;12.40;;;;;;;;;;5062659;28;20030;-85
2023/12/17 02:55:01;;;;;;;24.83;13.15;;;;;;;;;;5053154;28;20108;-84
2023/12/17 02:57:28;;;;;;;23.45;11.40;;;;;;;;;;5062208;28;20041;-85
2023/12/17 02:59:54;;;;;;;23.60;11.90;;;;;;;;;;5047862;28;20052;-84
2023/12/17 03:02:20;;;;;;;21.67;11.68;;;;;;;;;;5055995;28;20053;-84
2023/12/17 03:04:47;;;;;;;23.90;13.73;;;;;;;;;;5065081;28;20035;-84
2023/12/17 03:07:13;;;;;;;28.02;11.88;;;;;;;;;;5050032;28;20041;-84
2023/12/17 03:09:38;;;;;;;24.98;12.15;;;2.20;99.90;;;;;;5046327;28;20037;-81
2023/12/17 03:12:05;;;;;;;23.80;12.02;;;2.10;99.90;;;;;;5045729;28;20025;-83
2023/12/17 03:14:32;;;;;;;26.70;12.75;;;;;;;;;;5045936;28;20026;-80
2023/12/17 03:16:58;;;;;;;28.80;13.82;;;;;;;;;;5062557;28;20017;-84
2023/12/17 03:19:24;;;;;;;21.70;11.98;;;2.20;99.90;;;;;;5083168;28;20108;-83
2023/12/17 03:21:50;;;;;;;25.13;13.05;;;2.10;99.90;;;;;;5044332;28;20030;-86
2023/12/17 03:24:16;;;;;;;23.42;13.15;;;2.10;99.90;;;;;;5046667;28;20093;-85
2023/12/17 03:26:42;;;;;;;30.15;13.25;;;;;;;;;;5046507;28;20024;-84
2023/12/17 03:29:10;;;;;;;27.88;13.75;;;2.10;99.90;;;;;;5046888;28;20078;-82
2023/12/17 03:31:37;;;;;;;32.92;13.82;;;2.10;99.90;;;;;;5047957;28;20029;-80
2023/12/17 03:34:03;;;;;;;28.23;13.75;;;2.00;99.90;;;;;;5044024;28;20036;-81
2023/12/17 03:36:31;;;;;;;23.90;13.80;;;4.50;99.90;;;;;;5046010;28;20032;-82
2023/12/17 03:38:57;;;;;;;30.50;14.80;;;0.80;99.90;;;;;;5047312;28;20037;-84
2023/12/17 03:41:24;;;;;;;35.97;16.10;;;2.00;99.90;;;;;;5044596;28;20024;-80
2023/12/17 03:43:55;;;;;;;27.85;14.93;;;1.90;99.90;;;;;;5044757;28;20018;-86
2023/12/17 03:46:23;;;;;;;30.05;15.50;;;2.00;99.90;;;;;;5041209;28;20030;-84
2023/12/17 03:48:49;;;;;;;27.98;15.18;;;1.80;99.90;;;;;;5050088;28;20033;-83
2023/12/17 03:51:15;;;;;;;33.75;15.30;;;2.00;99.90;;;;;;5050906;28;20176;-85
2023/12/17 03:53:41;;;;;;;34.78;15.77;;;2.00;99.90;;;;;;5047757;28;20113;-81
2023/12/17 03:56:09;;;;;;;31.45;15.70;;;2.00;99.90;;;;;;5050820;28;20032;-81
2023/12/17 03:58:39;;;;;;;31.50;15.77;;;2.00;99.90;;;;;;5048793;28;20057;-85
2023/12/17 04:01:07;;;;;;;32.47;15.75;;;2.00;99.90;;;;;;5048234;28;20052;-83
2023/12/17 04:03:34;;;;;;;34.58;14.77;;;;;;;;;;5080361;28;20080;-82
2023/12/17 04:06:02;;;;;;;32.00;15.43;;;2.00;99.90;;;;;;5044618;28;20052;-82
2023/12/17 04:08:28;;;;;;;29.42;15.40;;;;;;;;;;5042951;28;20037;-82
2023/12/17 04:10:54;;;;;;;39.63;19.02;;;;;;;;;;5077272;28;20109;-82
2023/12/17 04:13:21;;;;;;;33.72;14.75;;;;;;;;;;5054325;28;20748;-85
2023/12/17 04:15:47;;;;;;;34.30;16.48;;;;;;;;;;5038136;28;20040;-85
2023/12/17 04:18:13;;;;;;;35.47;16.02;;;;;;;;;;5063103;28;20057;-82
2023/12/17 04:20:39;;;;;;;31.17;16.13;;;;;;;;;;5045330;28;20033;-82
2023/12/17 04:23:06;;;;;;;33.47;16.75;;;;;;;;;;5046971;28;20040;-84
2023/12/17 04:25:32;;;;;;;32.88;16.13;;;;;;;;;;5033814;28;20053;-81
2023/12/17 04:27:58;;;;;;;35.97;16.67;;;1.90;99.90;;;;;;5026545;28;20041;-81
2023/12/17 04:30:23;;;;;;;33.65;16.17;;;2.00;99.90;;;;;;5032998;28;20041;-82
2023/12/17 04:32:49;;;;;;;35.20;16.02;;;1.80;99.90;;;;;;5033246;28;20033;-79
2023/12/17 04:35:15;;;;;;;42.42;15.93;;;5.60;99.90;;;;;;5029095;28;20113;-79
2023/12/17 04:37:41;;;;;;;32.75;16.83;;;;;;;;;;5031124;28;20036;-82
2023/12/17 04:40:07;;;;;;;34.42;16.45;;;1.80;99.90;;;;;;5030247;28;20063;-79
2023/12/17 04:42:33;;;;;;;26.70;15.43;;;1.80;99.90;;;;;;5011104;28;20037;-79
2023/12/17 04:44:59;;;;;;;32.90;16.23;;;1.80;99.90;;;;;;5030298;28;20033;-80
2023/12/17 04:47:24;;;;;;;38.28;16.13;;;4.80;99.90;;;;;;5032614;28;20041;-80
2023/12/17 04:49:50;;;;;;;29.95;15.48;;;;;;;;;;5012956;28;20057;-80
2023/12/17 04:52:16;;;;;;;29.73;15.73;;;1.60;99.90;;;;;;5006230;28;20034;-79
2023/12/17 04:54:42;;;;;;;28.90;15.80;;;;;;;;;;5011986;28;20025;-79
2023/12/17 04:57:07;;;;;;;30.30;16.73;;;1.60;99.90;;;;;;5012796;28;20037;-80
2023/12/17 04:59:33;;;;;;;37.00;17.13;;;1.50;99.90;;;;;;5028092;28;20025;-80
2023/12/17 05:01:59;;;;;;;36.42;18.50;;;1.70;99.90;;;;;;5010474;28;20359;-78
2023/12/17 05:04:25;;;;;;;37.15;17.27;;;;;;;;;;5031578;28;20072;-79
2023/12/17 05:06:50;;;;;;;36.17;17.65;;;1.70;99.90;;;;;;5014349;28;20113;-81
2023/12/17 05:09:16;;;;;;;38.03;17.77;;;;;;;;;;5032352;28;20044;-78
2023/12/17 05:11:42;;;;;;;38.95;17.35;;;1.80;99.90;;;;;;5007291;28;20466;-80
2023/12/17 05:14:07;;;;;;;36.13;18.50;;;1.80;99.90;;;;;;5010114;28;20024;-78
2023/12/17 05:16:33;;;;;;;36.80;17.50;;;3.80;99.90;;;;;;5014196;28;20053;-80
2023/12/17 05:18:58;;;;;;;42.17;18.75;;;1.70;99.90;;;;;;5038486;28;20033;-82
2023/12/17 05:21:24;;;;;;;39.42;18.45;;;1.80;99.90;;;;;;5016954;28;20033;-79
2023/12/17 05:23:50;;;;;;;39.85;17.88;;;1.60;99.90;;;;;;5037011;28;20034;-81
2023/12/17 05:26:15;;;;;;;43.83;17.45;;;1.80;99.90;;;;;;5023221;28;20048;-79
2023/12/17 05:28:41;;;;;;;40.00;18.85;;;;;;;;;;5023541;28;20056;-81
2023/12/17 05:31:08;;;;;;;40.67;17.48;;;1.80;99.90;;;;;;5037242;28;20025;-80
2023/12/17 05:33:33;;;;;;;36.38;18.42;;;;;;;;;;5010203;28;20037;-79
2023/12/17 05:35:59;;;;;;;37.53;17.35;;;1.80;99.90;;;;;;5038980;28;20025;-79
2023/12/17 05:38:28;;;;;;;39.90;17.52;;;3.90;99.90;;;;;;5033279;28;20033;-80
2023/12/17 05:40:56;;;;;;;38.50;16.85;;;5.50;99.90;;;;;;5028499;28;20029;-79
2023/12/17 05:43:23;;;;;;;44.67;17.42;;;1.90;99.90;;;;;;5033021;28;20025;-79
2023/12/17 05:45:49;;;;;;;38.92;16.65;;;;;;;;;;5037341;28;20281;-79
2023/12/17 05:48:15;;;;;;;36.72;16.45;;;1.90;99.90;;;;;;5050132;28;20021;-81
2023/12/17 05:50:42;;;;;;;37.95;17.40;;;;;;;;;;5041353;28;20253;-79
2023/12/17 05:53:08;;;;;;;40.92;19.00;;;1.80;99.90;;;;;;5054625;28;20124;-79
2023/12/17 05:55:34;;;;;;;43.80;19.33;;;;;;;;;;5054615;28;20017;-80
2023/12/17 05:57:59;;;;;;;36.97;16.95;;;1.70;99.90;;;;;;5063933;28;20033;-80
2023/12/17 06:00:25;;;;;;;39.55;18.05;;;;;;;;;;5043675;28;20361;-79
2023/12/17 06:02:51;;;;;;;41.05;18.20;;;;;;;;;;5035338;28;20075;-83
2023/12/17 06:05:18;;;;;;;35.58;18.35;;;;;;;;;;5045208;28;20060;-81
2023/12/17 06:07:44;;;;;;;39.78;18.05;;;;;;;;;;5041408;28;20053;-82
2023/12/17 06:10:10;;;;;;;36.05;16.98;;;1.60;99.90;;;;;;5066942;28;20031;-81
2023/12/17 06:12:35;;;;;;;38.97;17.52;;;3.00;99.90;;;;;;5036075;28;20044;-79
2023/12/17 06:15:01;;;;;;;37.10;16.35;;;;;;;;;;5031709;28;20030;-80
2023/12/17 06:17:27;;;;;;;36.92;16.52;;;;;;;;;;5041492;28;20097;-82
2023/12/17 06:19:53;;;;;;;32.97;15.27;;;;;;;;;;5053185;28;20030;-81
2023/12/17 06:22:19;;;;;;;43.05;17.05;;;;;;;;;;5032414;28;20128;-81
2023/12/17 06:24:45;;;;;;;31.35;14.80;;;;;;;;;;5068271;28;20040;-80
2023/12/17 06:27:18;;;;;;;35.08;15.43;;;1.80;99.90;;;;;;5072448;28;20033;-80
2023/12/17 06:29:44;;;;;;;29.23;14.98;;;;;;;;;;5040711;28;20604;-80
2023/12/17 06:32:11;;;;;;;28.75;13.48;;;1.80;99.90;;;;;;5040426;28;20029;-80
2023/12/17 06:34:37;;;;;;;29.23;13.93;;;;;;;;;;5042591;28;20053;-81
2023/12/17 06:37:03;;;;;;;28.13;14.65;;;;;;;;;;5055977;28;20042;-82
2023/12/17 06:39:29;;;;;;;28.15;14.45;;;;;;;;;;5033826;28;20051;-82
2023/12/17 06:41:55;;;;;;;25.80;13.40;;;;;;;;;;5037045;28;20107;-79
2023/12/17 06:44:21;;;;;;;34.15;15.88;;;;;;;;;;5077401;28;20025;-81
2023/12/17 06:46:49;;;;;;;25.45;13.98;;;1.70;99.90;;;;;;5042036;28;20022;-80
2023/12/17 06:49:15;;;;;;;29.45;14.50;;;;;;;;;;5037532;28;20049;-79
2023/12/17 06:51:41;;;;;;;30.90;14.27;;;;;;;;;;5041565;28;20117;-80
2023/12/17 06:54:07;;;;;;;25.02;14.13;;;;;;;;;;5049482;28;20037;-81
2023/12/17 06:56:33;;;;;;;28.23;13.80;;;1.60;99.90;;;;;;5037691;28;20021;-80
2023/12/17 06:58:58;;;;;;;25.85;13.70;;;4.70;99.90;;;;;;5053060;28;20049;-83
2023/12/17 07:01:24;;;;;;;23.90;13.43;;;4.00;99.90;;;;;;5038236;28;20045;-82
2023/12/17 07:03:50;;;;;;;31.65;14.02;;;0.90;99.90;;;;;;5040184;28;20237;-80
2023/12/17 07:06:15;;;;;;;26.70;13.98;;;1.60;99.90;;;;;;5029566;28;20034;-81
2023/12/17 07:08:41;;;;;;;24.42;13.48;;;2.60;99.90;;;;;;5031412;28;20045;-80
2023/12/17 07:11:07;;;;;;;23.27;12.80;;;1.30;99.90;;;;;;5032193;28;20089;-83
2023/12/17 07:13:33;;;;;;;26.95;14.90;;;1.40;99.90;;;;;;5036172;28;20022;-81
2023/12/17 07:15:58;;;;;;;27.17;13.70;;;1.50;99.90;;;;;;5039287;28;20037;-80
2023/12/17 07:18:24;;;;;;;27.65;13.55;;;1.40;99.90;;;;;;5034158;28;20043;-80
2023/12/17 07:20:50;;;;;;;26.45;14.57;;;3.40;99.90;;;;;;5028362;28;20040;-81
2023/12/17 07:23:16;;;;;;;24.27;12.93;;;3.90;99.90;;;;;;5059564;28;20030;-84
2023/12/17 07:25:42;;;;;;;29.38;13.60;;;2.40;99.90;;;;;;5038434;28;20036;-81
2023/12/17 07:28:07;;;;;;;29.00;13.75;;;1.60;99.90;;;;;;5034234;28;20080;-81
2023/12/17 07:30:34;;;;;;;25.38;13.52;;;3.30;99.90;;;;;;5035193;28;20031;-81
2023/12/17 07:33:00;;;;;;;27.55;14.88;;;1.70;99.90;;;;;;5067387;28;20333;-79
2023/12/17 07:35:26;;;;;;;31.80;14.23;;;4.60;99.90;;;;;;5032916;28;20034;-79
2023/12/17 07:37:52;;;;;;;28.98;14.07;;;4.80;99.90;;;;;;5031694;28;20044;-81
2023/12/17 07:40:18;;;;;;;31.02;15.13;;;;;;;;;;5022826;28;20033;-79
2023/12/17 07:42:43;;;;;;;27.48;14.27;;;1.60;99.90;;;;;;5023661;28;20033;-81
2023/12/17 07:45:09;;;;;;;27.52;13.63;;;2.40;99.90;;;;;;5026853;28;20065;-80
2023/12/17 07:47:35;;;;;;;30.95;14.52;;;1.60;99.90;;;;;;5020874;28;20057;-80
2023/12/17 07:50:01;;;;;;;26.63;13.82;;;4.60;99.90;;;;;;5021372;28;20417;-79
2023/12/17 07:52:27;;;;;;;30.70;15.48;;;;;;;;;;5026432;28;20957;-80
2023/12/17 07:54:53;;;;;;;25.65;12.80;;;1.60;99.90;;;;;;5028187;28;20045;-81
2023/12/17 07:57:19;;;;;;;26.60;14.38;;;2.90;99.90;;;;;;5058065;28;20037;-79
2023/12/17 07:59:46;;;;;;;28.05;13.57;;;3.60;99.90;;;;;;5037346;28;20561;-80
2023/12/17 08:02:14;;;;;;;28.38;14.32;;;4.60;99.90;;;;;;5040725;28;21152;-81
2023/12/17 08:04:41;;;;;;;25.42;13.65;;;1.60;99.90;;;;;;5028619;28;20033;-79
2023/12/17 08:07:07;;;;;;;26.23;13.52;;;;;;;;;;5003557;28;20033;-80
2023/12/17 08:09:35;;;;;;;26.48;13.93;;;1.70;99.90;;;;;;5025303;28;20148;-81
2023/12/17 08:12:00;;;;;;;28.52;13.27;;;3.10;99.90;;;;;;5018096;28;20029;-79
2023/12/17 08:14:26;;;;;;;28.83;14.57;;;2.90;99.90;;;;;;5029329;28;20040;-80
2023/12/17 08:16:52;;;;;;;26.15;13.88;;;1.80;99.90;;;;;;5023962;28;20064;-79
2023/12/17 08:19:18;;;;;;;28.92;14.07;;;1.80;99.90;;;;;;5024953;28;20076;-82
2023/12/17 08:21:44;;;;;;;25.55;13.93;;;;;;;;;;5022288;28;20055;-81
2023/12/17 08:24:09;;;;;;;27.73;15.18;;;1.80;99.90;;;;;;5024807;28;20394;-82
2023/12/17 08:26:35;;;;;;;26.65;14.02;;;1.80;99.90;;;;;;5024666;28;20044;-79
2023/12/17 08:29:01;;;;;;;27.83;13.77;;;1.90;99.90;;;;;;5058686;28;20222;-80
2023/12/17 08:31:26;;;;;;;30.08;15.10;;;1.90;99.90;;;;;;5047385;28;20029;-81
2023/12/17 08:33:52;;;;;;;31.35;15.63;;;2.00;99.90;;;;;;5026281;28;20062;-80
2023/12/17 08:36:19;;;;;;;31.73;15.07;;;2.00;99.90;;;;;;5042660;28;20033;-79
2023/12/17 08:38:45;;;;;;;31.75;14.68;;;;;;;;;;5043324;28;20040;-79
2023/12/17 08:41:12;;;;;;;33.33;15.38;;;2.00;99.90;;;;;;5063340;28;20017;-79
2023/12/17 08:43:41;;;;;;;32.35;15.35;;;2.00;99.90;;;;;;5041780;28;20021;-79
2023/12/17 08:46:07;;;;;;;30.77;15.45;;;2.00;99.90;;;;;;5044974;28;20035;-79
2023/12/17 08:48:32;;;;;;;31.98;14.38;;;2.10;99.90;;;;;;5035396;28;20151;-81
2023/12/17 08:50:58;;;;;;;31.98;14.05;;;;;;;;;;5042905;28;20029;-82
2023/12/17 08:53:26;;;;;;;26.58;14.40;;;2.00;99.90;;;;;;5030551;28;20025;-82
2023/12/17 08:55:54;;;;;;;29.30;14.98;;;2.10;99.90;;;;;;5030590;28;20025;-80
2023/12/17 08:58:20;;;;;;;28.10;14.98;;;5.30;99.90;;;;;;5028009;28;20071;-82
2023/12/17 09:00:45;;;;;;;30.75;14.88;;;2.20;99.90;;;;;;5026512;28;20434;-81
2023/12/17 09:03:11;;;;;;;30.83;15.02;;;2.20;99.90;;;;;;5046112;28;20033;-81
2023/12/17 09:05:37;;;;;;;25.45;14.57;;;5.20;99.90;;;;;;5023014;28;20342;-80
2023/12/17 09:08:03;;;;;;;30.08;15.18;;;;;;;;;;5028645;28;20033;-80
2023/12/17 09:10:29;;;;;;;28.35;14.82;;;;;;;;;;5032478;28;20033;-81
2023/12/17 09:12:54;;;;;;;28.83;15.73;;;2.30;99.90;;;;;;5030318;28;20026;-82
2023/12/17 09:15:21;;;;;;;29.08;15.38;;;;;;;;;;5032567;28;20040;-80
2023/12/17 09:17:47;;;;;;;29.27;15.48;;;;;;;;;;5033549;28;20025;-81
2023/12/17 09:20:15;;;;;;;26.33;14.52;;;2.30;99.90;;;;;;5046290;28;20038;-83
2023/12/17 09:22:41;;;;;;;29.90;14.77;;;2.40;99.90;;;;;;5029174;28;20037;-80
2023/12/17 09:25:07;;;;;;;29.65;14.75;;;2.30;99.90;;;;;;5031455;28;20040;-81
2023/12/17 09:27:33;;;;;;;31.40;14.85;;;2.50;99.90;;;;;;5047597;28;20073;-81
2023/12/17 09:29:58;;;;;;;31.10;14.88;;;2.50;99.90;;;;;;5041313;28;20040;-79
2023/12/17 09:32:26;;;;;;;33.70;15.13;;;;;;;;;;5044525;28;20022;-80
2023/12/17 09:34:51;;;;;;;27.67;14.80;;;2.60;99.90;;;;;;5040241;28;20056;-80
2023/12/17 09:37:17;;;;;;;32.83;15.65;;;;;;;;;;5041861;28;20034;-81
2023/12/17 09:39:43;;;;;;;29.08;15.48;;;;;;;;;;5037308;28;20030;-78
2023/12/17 09:42:09;;;;;;;26.40;13.57;;;;;;;;;;5039084;28;20033;-81
2023/12/17 09:44:35;;;;;;;27.17;14.02;;;;;;;;;;5052205;28;20056;-81
2023/12/17 09:47:01;;;;;;;27.40;15.50;;;2.70;99.90;;;;;;5057487;28;20093;-80
2023/12/17 09:49:27;;;;;;;31.55;16.02;;;5.60;99.90;;;;;;5039771;28;20454;-84
2023/12/17 09:52:01;;;;;;;43.55;17.30;;;2.70;99.90;;;;;;5040221;28;20072;-83
2023/12/17 09:54:29;;;;;;;27.38;15.40;;;2.80;99.90;;;;;;5039926;28;20041;-81
2023/12/17 09:56:57;;;;;;;27.63;14.95;;;2.70;99.90;;;;;;5037098;28;20028;-81
2023/12/17 09:59:23;;;;;;;26.38;14.23;;;2.80;99.90;;;;;;5041794;28;20064;-83
2023/12/17 10:01:49;;;;;;;28.70;15.50;;;;;;;;;;5072116;28;20034;-86
2023/12/17 10:04:15;;;;;;;26.73;14.43;;;;;;;;;;5029562;28;20033;-82
2023/12/17 10:06:41;;;;;;;25.48;14.50;;;2.90;99.90;;;;;;5040052;28;20428;-82
2023/12/17 10:09:08;;;;;;;26.10;15.07;;;5.30;99.90;;;;;;5020549;28;20058;-81
2023/12/17 10:11:34;;;;;;;75.72;34.78;;;;;;;;;;5034372;28;20029;-82
2023/12/17 10:14:00;;;;;;;37.55;18.65;;;3.10;99.90;;;;;;5055674;28;20040;-82
2023/12/17 10:16:27;;;;;;;34.63;17.80;;;3.10;99.90;;;;;;5039458;28;20029;-81
2023/12/17 10:18:53;;;;;;;35.45;16.77;;;;;;;;;;5034024;28;20041;-79
2023/12/17 10:21:19;;;;;;;32.28;17.45;;;;;;;;;;5050845;28;20058;-80
2023/12/17 10:23:49;;;;;;;31.73;16.45;;;3.40;99.90;;;;;;5031637;28;20025;-79
2023/12/17 10:26:15;;;;;;;32.58;15.88;;;3.40;99.90;;;;;;5032881;28;20037;-79
2023/12/17 10:28:47;;;;;;;34.90;18.23;;;6.20;99.90;;;;;;5030249;28;20029;-78
2023/12/17 10:31:17;;;;;;;31.23;16.73;;;3.30;99.90;;;;;;5040231;28;20354;-80
2023/12/17 10:34:00;;;;;;;29.75;16.40;;;3.50;99.90;;;;;;5040560;28;20056;-83
2023/12/17 10:36:26;;;;;;;32.25;15.65;;;4.90;99.90;;;;;;5032985;28;20044;-80
2023/12/17 10:38:56;;;;;;;34.53;17.40;;;3.30;99.90;;;;;;5038169;28;20509;-80
2023/12/17 10:41:24;;;;;;;33.28;16.63;;;3.90;99.90;;;;;;5031308;28;20029;-79
2023/12/17 10:43:52;;;;;;;32.67;16.45;;;6.40;99.90;;;;;;5035898;28;20036;-81
2023/12/17 10:46:19;;;;;;;32.75;16.73;;;;;;;;;;5064612;28;20034;-84
2023/12/17 10:48:45;;;;;;;31.67;16.38;;;3.60;99.90;;;;;;5078893;28;20094;-82
2023/12/17 10:51:11;;;;;;;31.75;15.63;;;;;;;;;;5072413;28;20026;-82
2023/12/17 10:53:36;;;;;;;32.15;17.70;;;3.60;99.90;;;;;;5038279;28;20228;-81
2023/12/17 10:56:06;;;;;;;34.15;17.70;;;5.20;99.90;;;;;;5039894;28;20779;-81
2023/12/17 10:58:32;;;;;;;33.92;16.50;;;;;;;;;;5040435;28;20029;-83
2023/12/17 11:00:58;;;;;;;37.40;18.63;;;;;;;;;;5040632;28;20025;-82
2023/12/17 11:03:25;;;;;;;36.08;17.10;;;3.80;99.90;;;;;;5040933;28;20044;-80
2023/12/17 11:05:59;;;;;;;30.38;17.48;;;5.80;99.90;;;;;;5036062;28;20206;-81
2023/12/17 11:08:25;;;;;;;27.83;16.55;;;3.90;99.90;;;;;;5039246;28;20049;-82
2023/12/17 11:10:52;;;;;;;31.08;17.45;;;4.60;99.90;;;;;;5036868;28;20081;-84
2023/12/17 11:13:22;;;;;;;35.53;16.27;;;4.00;99.90;;;;;;5036798;28;20045;-83
2023/12/17 11:15:48;;;;;;;34.10;16.50;;;4.00;99.90;;;;;;5037941;28;20049;-82
2023/12/17 11:18:14;;;;;;;32.85;16.08;;;;;;;;;;5054285;28;20040;-83
2023/12/17 11:20:40;;;;;;;31.88;17.60;;;4.00;99.90;;;;;;5038175;28;20033;-81
2023/12/17 11:23:06;;;;;;;27.15;15.32;;;4.00;99.90;;;;;;5039117;28;20041;-82
2023/12/17 11:25:34;;;;;;;29.23;15.77;;;6.50;99.90;;;;;;5050901;28;20034;-83
2023/12/17 11:28:00;;;;;;;28.85;15.50;;;6.10;99.90;;;;;;5035571;28;20044;-82
2023/12/17 11:30:28;;;;;;;28.90;15.77;;;4.10;99.90;;;;;;5035433;28;20033;-81
2023/12/17 11:32:55;;;;;;;30.27;16.60;;;4.10;99.90;;;;;;5033485;28;20033;-82
2023/12/17 11:35:21;;;;;;;29.20;16.38;;;4.10;99.90;;;;;;5037316;28;20064;-81
2023/12/17 11:37:47;;;;;;;27.05;15.30;;;4.10;99.90;;;;;;5039295;23;20041;-83
2023/12/17 11:40:13;;;;;;;29.65;15.88;;;4.10;99.90;;;;;;5030676;28;20113;-84
2023/12/17 11:42:40;;;;;;;29.88;15.80;;;4.20;99.90;;;;;;5023991;28;20037;-82
2023/12/17 11:45:07;;;;;;;28.45;15.82;;;4.30;99.90;;;;;;5016536;28;20034;-81
2023/12/17 11:47:34;;;;;;;27.70;15.88;;;4.30;99.90;;;;;;5019136;28;20038;-81
2023/12/17 11:50:02;;;;;;;27.63;15.52;;;4.30;99.90;;;;;;5016927;28;20048;-82
2023/12/17 11:52:29;;;;;;;28.17;15.30;;;4.40;99.90;;;;;;5017662;28;20029;-84
2023/12/17 11:55:04;;;;;;;33.53;16.42;;;4.40;99.90;;;;;;5024014;28;20021;-82
2023/12/17 11:58:02;;;;;;;28.52;15.80;;;4.50;99.90;;;;;;5022405;28;20026;-80
2023/12/17 12:00:28;;;;;;;30.80;16.75;;;3.80;99.90;;;;;;5008379;28;20030;-82
2023/12/17 12:02:54;;;;;;;33.45;16.92;;;4.60;99.90;;;;;;5032148;28;20037;-82
2023/12/17 12:05:20;;;;;;;32.72;16.67;;;4.60;99.90;;;;;;5015922;28;20060;-85
2023/12/17 12:07:52;;;;;;;32.15;16.67;;;4.70;99.90;;;;;;5014229;28;20490;-84
2023/12/17 12:10:22;;;;;;;33.70;16.80;;;4.70;99.90;;;;;;5019731;28;20033;-81
2023/12/17 12:13:03;;;;;;;30.55;15.65;;;4.80;99.90;;;;;;5026839;28;21284;-86
2023/12/17 12:15:30;;;;;;;27.38;15.90;;;4.80;99.90;;;;;;5018892;28;20034;-84
2023/12/17 12:17:56;;;;;;;29.63;15.98;;;;;;;;;;5014493;28;20022;-82
2023/12/17 12:20:38;;;;;;;32.50;17.90;;;4.80;99.90;;;;;;5030488;28;20074;-83
2023/12/17 12:23:10;;;;;;;33.10;17.17;;;4.80;99.90;;;;;;5000293;28;20044;-82
2023/12/17 12:25:40;;;;;;;37.20;20.02;;;4.80;99.90;;;;;;5027946;28;20064;-81
2023/12/17 12:28:20;;;;;;;37.10;19.10;;;4.90;99.90;;;;;;5011584;28;20429;-84
2023/12/17 12:30:50;;;;;;;36.15;18.75;;;;;;;;;;5019749;28;20052;-86
2023/12/17 12:33:18;;;;;;;38.97;19.25;;;;;;;;;;5036331;28;20101;-83
2023/12/17 12:35:45;;;;;;;42.95;21.23;;;4.80;99.90;;;;;;5023673;28;20021;-84
2023/12/17 12:38:19;;;;;;;39.75;20.77;;;4.90;99.90;;;;;;5039812;28;20046;-84
2023/12/17 12:40:46;;;;;;;37.95;18.52;;;;;;;;;;5037501;28;20014;-85
2023/12/17 12:43:14;;;;;;;42.63;20.50;;;;;;;;;;5032899;28;20038;-87
2023/12/17 12:45:41;;;;;;;45.70;21.40;;;4.90;99.90;;;;;;5032780;28;20014;-86
2023/12/17 12:48:25;;;;;;;41.30;21.08;;;4.90;99.90;;;;;;5051982;28;20037;-82
2023/12/17 12:50:52;;;;;;;38.60;18.80;;;4.90;99.90;;;;;;5025755;28;20513;-84
2023/12/17 12:53:19;;;;;;;39.90;19.88;;;4.90;99.90;;;;;;5020342;28;20080;-82
2023/12/17 12:55:47;;;;;;;43.00;19.65;;;5.00;99.90;;;;;;5025874;28;20037;-84
2023/12/17 12:58:14;;;;;;;37.40;19.92;;;5.00;99.90;;;;;;5034688;28;20029;-83
2023/12/17 13:00:45;;;;;;;39.25;19.15;;;5.00;99.90;;;;;;5013336;28;20129;-81
2023/12/17 13:03:11;;;;;;;39.90;20.23;;;5.10;99.90;;;;;;5023024;28;20030;-84